createdAt,value
2017-06-19T00:00:04.654Z,6.70
2017-06-19T00:02:30.652Z,7.20
2017-06-19T00:04:56.646Z,6.67
2017-06-19T00:07:22.646Z,6.50
2017-06-19T00:09:48.606Z,6.90
2017-06-19T00:12:14.598Z,6.73
2017-06-19T00:14:40.553Z,6.30
2017-06-19T00:17:06.538Z,6.23
2017-06-19T00:19:32.530Z,6.90
2017-06-19T00:21:58.514Z,6.80
2017-06-19T00:24:24.658Z,6.50
2017-06-19T00:26:50.622Z,6.80
2017-06-19T00:29:16.626Z,6.90
2017-06-19T00:31:42.659Z,7.17
2017-06-19T00:34:08.654Z,6.47
2017-06-19T00:36:34.618Z,6.90
2017-06-19T00:39:00.588Z,7.43
2017-06-19T00:41:26.632Z,7.07
2017-06-19T00:43:52.610Z,6.50
2017-06-19T00:46:18.594Z,6.77
2017-06-19T00:48:44.554Z,6.07
2017-06-19T00:51:10.553Z,7.73
2017-06-19T00:53:36.522Z,7.13
2017-06-19T00:56:02.487Z,6.87
2017-06-19T00:58:28.495Z,6.90
2017-06-19T01:00:54.478Z,6.60
2017-06-19T01:03:20.482Z,8.07
2017-06-19T01:05:46.490Z,6.47
2017-06-19T01:08:12.454Z,9.50
2017-06-19T01:10:38.426Z,7.70
2017-06-19T01:13:04.427Z,6.27
2017-06-19T01:15:30.414Z,6.90
2017-06-19T01:17:56.422Z,6.83
2017-06-19T01:20:22.398Z,7.83
2017-06-19T01:22:48.362Z,7.03
2017-06-19T01:25:14.359Z,6.90
2017-06-19T01:27:40.319Z,7.00
2017-06-19T01:30:07.094Z,7.07
2017-06-19T01:32:33.054Z,6.27
2017-06-19T01:34:59.754Z,7.17
2017-06-19T01:37:25.766Z,7.30
2017-06-19T01:39:51.717Z,7.57
2017-06-19T01:42:17.729Z,6.87
2017-06-19T01:44:43.686Z,7.40
2017-06-19T01:47:09.674Z,7.40
2017-06-19T01:49:35.669Z,6.80
2017-06-19T01:52:01.672Z,7.30
2017-06-19T01:54:27.674Z,8.03
2017-06-19T01:56:53.642Z,7.20
2017-06-19T01:59:19.610Z,8.47
2017-06-19T02:01:45.650Z,7.27
2017-06-19T02:04:11.615Z,7.80
2017-06-19T02:06:37.574Z,7.53
2017-06-19T02:09:03.567Z,7.60
2017-06-19T02:11:29.566Z,7.00
2017-06-19T02:13:55.582Z,6.97
2017-06-19T02:16:21.542Z,8.53
2017-06-19T02:18:47.535Z,7.23
2017-06-19T02:21:14.285Z,7.30
2017-06-19T02:23:40.242Z,6.63
2017-06-19T02:26:06.270Z,8.67
2017-06-19T02:28:33.007Z,7.27
2017-06-19T02:30:59.746Z,8.10
2017-06-19T02:33:25.737Z,7.13
2017-06-19T02:35:51.698Z,8.83
2017-06-19T02:38:17.689Z,7.67
2017-06-19T02:40:43.650Z,7.63
2017-06-19T02:43:10.389Z,7.20
2017-06-19T02:45:36.387Z,8.10
2017-06-19T02:48:03.122Z,8.00
2017-06-19T02:50:29.846Z,7.47
2017-06-19T02:52:56.673Z,7.87
2017-06-19T02:55:23.435Z,7.70
2017-06-19T02:57:49.401Z,8.30
2017-06-19T03:00:15.353Z,8.13
2017-06-19T03:02:41.349Z,7.27
2017-06-19T03:05:07.341Z,7.93
2017-06-19T03:07:33.341Z,8.27
2017-06-19T03:10:25.562Z,7.70
2017-06-19T03:12:51.525Z,7.53
2017-06-19T03:15:17.518Z,7.37
2017-06-19T03:17:43.471Z,7.60
2017-06-19T03:20:09.454Z,7.47
2017-06-19T03:22:35.454Z,8.03
2017-06-19T03:25:01.409Z,8.57
2017-06-19T03:27:27.407Z,8.23
2017-06-19T03:29:53.500Z,7.43
2017-06-19T03:32:19.489Z,7.00
2017-06-19T03:34:45.450Z,8.47
2017-06-19T03:37:11.443Z,8.17
2017-06-19T03:39:37.411Z,8.10
2017-06-19T03:42:03.410Z,8.53
2017-06-19T03:44:29.394Z,8.50
2017-06-19T03:46:56.107Z,7.90
2017-06-19T03:49:22.861Z,8.60
2017-06-19T03:51:48.830Z,8.77
2017-06-19T03:54:14.810Z,7.77
2017-06-19T03:56:40.826Z,8.07
2017-06-19T03:59:06.786Z,7.90
2017-06-19T04:01:32.778Z,7.70
2017-06-19T04:03:59.482Z,7.67
2017-06-19T04:06:25.482Z,7.97
2017-06-19T04:08:51.445Z,8.07
2017-06-19T04:11:17.448Z,8.00
2017-06-19T04:13:43.456Z,7.90
2017-06-19T04:16:09.405Z,8.30
2017-06-19T04:18:35.386Z,8.27
2017-06-19T04:21:01.403Z,7.60
2017-06-19T04:23:27.454Z,8.07
2017-06-19T04:25:53.430Z,8.60
2017-06-19T04:28:19.403Z,7.80
2017-06-19T04:30:45.396Z,8.27
2017-06-19T04:33:11.355Z,8.60
2017-06-19T04:35:37.352Z,8.10
2017-06-19T04:38:03.341Z,7.67
2017-06-19T04:40:29.350Z,8.40
2017-06-19T04:42:55.350Z,7.60
2017-06-19T04:45:21.338Z,8.50
2017-06-19T04:47:47.410Z,8.60
2017-06-19T04:50:13.426Z,8.57
2017-06-19T04:52:39.394Z,8.20
2017-06-19T04:55:06.094Z,8.30
2017-06-19T04:57:32.122Z,8.43
2017-06-19T04:59:58.842Z,9.10
2017-06-19T05:02:25.593Z,8.17
2017-06-19T05:04:51.560Z,8.43
2017-06-19T05:07:17.550Z,8.30
2017-06-19T05:12:15.077Z,9.20
2017-06-19T05:14:41.046Z,8.90
2017-06-19T05:17:07.038Z,10.10
2017-06-19T05:19:33.061Z,8.30
2017-06-19T05:21:59.069Z,8.57
2017-06-19T05:24:25.030Z,8.30
2017-06-19T05:26:51.074Z,9.03
2017-06-19T05:29:17.046Z,7.70
2017-06-19T05:31:43.082Z,9.07
2017-06-19T05:34:09.051Z,7.90
2017-06-19T05:36:35.014Z,7.60
2017-06-19T05:39:01.030Z,9.10
2017-06-19T05:41:27.048Z,8.77
2017-06-19T05:43:53.050Z,8.93
2017-06-19T05:46:19.021Z,8.30
2017-06-19T05:48:45.794Z,8.90
2017-06-19T05:51:11.771Z,8.67
2017-06-19T05:53:37.744Z,9.63
2017-06-19T05:56:03.754Z,8.90
2017-06-19T05:58:29.731Z,8.80
2017-06-19T06:00:56.546Z,9.00
2017-06-19T06:03:22.565Z,9.37
2017-06-19T06:05:48.562Z,10.67
2017-06-19T06:08:14.549Z,8.17
2017-06-19T06:10:40.546Z,7.73
2017-06-19T06:13:07.250Z,9.10
2017-06-19T06:15:33.281Z,10.00
2017-06-19T06:17:59.266Z,11.73
2017-06-19T06:20:25.235Z,9.50
2017-06-19T06:22:51.246Z,7.27
2017-06-19T06:25:17.206Z,7.43
2017-06-19T06:27:43.169Z,7.23
2017-06-19T06:30:09.169Z,7.57
2017-06-19T06:32:35.133Z,8.50
2017-06-19T06:35:01.153Z,7.13
2017-06-19T06:37:27.167Z,11.10
2017-06-19T06:39:53.145Z,8.53
2017-06-19T06:42:19.154Z,7.40
2017-06-19T06:44:45.111Z,8.00
2017-06-19T06:47:11.070Z,8.20
2017-06-19T06:49:37.122Z,8.10
2017-06-19T06:52:03.179Z,8.20
2017-06-19T06:54:29.197Z,7.70
2017-06-19T06:56:55.220Z,7.13
2017-06-19T06:59:21.929Z,6.87
2017-06-19T07:01:47.890Z,8.17
2017-06-19T07:04:13.902Z,6.83
2017-06-19T07:06:39.869Z,6.70
2017-06-19T07:09:05.890Z,6.50
2017-06-19T07:11:32.646Z,6.27
2017-06-19T07:13:58.625Z,6.77
2017-06-19T07:16:25.386Z,5.87
2017-06-19T07:18:51.342Z,6.07
2017-06-19T07:21:17.294Z,5.73
2017-06-19T07:23:43.299Z,6.33
2017-06-19T07:26:09.318Z,6.90
2017-06-19T07:28:35.273Z,6.23
2017-06-19T07:31:01.245Z,6.00
2017-06-19T07:33:27.287Z,5.50
2017-06-19T07:35:53.264Z,6.47
2017-06-19T07:38:19.224Z,6.10
2017-06-19T07:40:45.963Z,6.30
2017-06-19T07:43:11.934Z,7.10
2017-06-19T07:45:37.930Z,9.43
2017-06-19T07:48:03.909Z,6.40
2017-06-19T07:50:29.972Z,5.13
2017-06-19T07:52:55.930Z,5.10
2017-06-19T07:55:21.935Z,9.40
2017-06-19T07:57:47.942Z,5.30
2017-06-19T08:00:13.894Z,4.67
2017-06-19T08:02:39.859Z,5.07
2017-06-19T08:05:05.863Z,5.20
2017-06-19T08:07:31.823Z,4.90
2017-06-19T08:09:57.839Z,4.80
2017-06-19T08:12:24.560Z,4.53
2017-06-19T08:14:50.523Z,5.53
2017-06-19T08:17:16.535Z,4.90
2017-06-19T08:19:42.494Z,5.17
2017-06-19T08:22:08.449Z,4.77
2017-06-19T08:24:34.459Z,5.30
2017-06-19T08:27:00.544Z,5.70
2017-06-19T08:29:26.519Z,5.07
2017-06-19T08:31:52.522Z,5.50
2017-06-19T08:34:18.479Z,5.03
2017-06-19T08:36:44.481Z,5.87
2017-06-19T08:39:10.431Z,5.00
2017-06-19T08:41:36.432Z,4.43
2017-06-19T08:44:02.439Z,6.13
2017-06-19T08:46:28.398Z,5.53
2017-06-19T08:48:55.097Z,5.17
2017-06-19T08:51:21.122Z,5.33
2017-06-19T08:53:47.096Z,5.37
2017-06-19T08:56:13.114Z,7.00
2017-06-19T08:58:39.081Z,5.47
2017-06-19T09:01:05.042Z,5.53
2017-06-19T09:03:31.102Z,5.30
2017-06-19T09:05:57.111Z,5.40
2017-06-19T09:08:23.075Z,4.93
2017-06-19T09:10:49.092Z,4.70
2017-06-19T09:13:15.041Z,5.03
2017-06-19T09:15:41.038Z,5.20
2017-06-19T09:18:07.015Z,4.77
2017-06-19T09:20:33.002Z,6.03
2017-06-19T09:22:58.983Z,5.20
2017-06-19T09:25:24.986Z,4.97
2017-06-19T09:27:50.950Z,5.57
2017-06-19T09:30:16.935Z,5.53
2017-06-19T09:32:42.930Z,4.53
2017-06-19T09:35:08.936Z,4.50
2017-06-19T09:37:34.976Z,4.70
2017-06-19T09:40:00.983Z,5.20
2017-06-19T09:42:27.039Z,9.70
2017-06-19T09:44:53.014Z,4.73
2017-06-19T09:47:18.984Z,5.10
2017-06-19T09:49:44.991Z,4.83
2017-06-19T09:52:10.959Z,4.80
2017-06-19T09:54:37.734Z,4.73
2017-06-19T09:57:03.742Z,5.07
2017-06-19T09:59:29.717Z,4.67
2017-06-19T10:01:55.785Z,5.20
2017-06-19T10:04:21.754Z,4.77
2017-06-19T10:06:47.712Z,5.37
2017-06-19T10:09:13.714Z,5.43
2017-06-19T10:11:39.713Z,4.80
2017-06-19T10:14:05.721Z,3.93
2017-06-19T10:16:31.698Z,4.60
2017-06-19T10:18:57.692Z,5.10
2017-06-19T10:21:23.647Z,4.20
2017-06-19T10:23:49.603Z,5.07
2017-06-19T10:26:15.606Z,4.50
2017-06-19T10:28:41.553Z,4.70
2017-06-19T10:31:07.591Z,4.23
2017-06-19T10:33:33.653Z,4.77
2017-06-19T10:35:59.628Z,4.40
2017-06-19T10:38:26.354Z,4.40
2017-06-19T10:40:53.110Z,4.43
2017-06-19T10:43:19.073Z,4.57
2017-06-19T10:45:45.030Z,4.57
2017-06-19T10:48:11.029Z,4.90
2017-06-19T10:50:36.999Z,4.53
2017-06-19T10:53:02.994Z,4.00
2017-06-19T10:55:28.973Z,3.60
2017-06-19T10:57:54.950Z,3.80
2017-06-19T11:00:21.697Z,3.37
2017-06-19T11:02:47.674Z,4.40
2017-06-19T11:05:13.667Z,3.90
2017-06-19T11:07:39.629Z,3.40
2017-06-19T11:10:05.662Z,3.27
2017-06-19T11:12:31.670Z,3.97
2017-06-19T11:14:57.662Z,3.80
2017-06-19T11:17:23.674Z,4.37
2017-06-19T11:19:49.669Z,4.10
2017-06-19T11:22:15.623Z,5.20
2017-06-19T11:24:41.605Z,3.50
2017-06-19T11:27:07.564Z,3.90
2017-06-19T11:29:34.258Z,3.67
2017-06-19T11:32:00.285Z,3.27
2017-06-19T11:34:26.272Z,4.37
2017-06-19T11:36:52.226Z,4.00
2017-06-19T11:39:18.992Z,4.97
2017-06-19T11:41:44.953Z,4.37
2017-06-19T11:44:11.653Z,3.97
2017-06-19T11:46:37.653Z,3.90
2017-06-19T11:49:03.657Z,3.73
2017-06-19T11:51:29.667Z,3.90
2017-06-19T11:53:55.623Z,4.00
2017-06-19T11:56:21.635Z,3.87
2017-06-19T11:58:47.588Z,5.40
2017-06-19T12:01:13.610Z,5.07
2017-06-19T12:03:39.594Z,4.40
2017-06-19T12:06:05.542Z,5.30
2017-06-19T12:08:31.533Z,3.97
2017-06-19T12:10:57.517Z,6.10
2017-06-19T12:13:23.524Z,5.53
2017-06-19T12:15:49.522Z,5.33
2017-06-19T12:18:15.500Z,4.57
2017-06-19T12:20:41.498Z,4.53
2017-06-19T12:23:07.462Z,6.50
2017-06-19T12:25:33.463Z,5.50
2017-06-19T12:27:59.442Z,4.40
2017-06-19T12:30:26.232Z,6.40
2017-06-19T12:32:52.194Z,5.30
2017-06-19T12:35:18.152Z,5.77
2017-06-19T12:37:44.192Z,5.90
2017-06-19T12:40:10.889Z,6.90
2017-06-19T12:42:36.941Z,7.27
2017-06-19T12:45:02.961Z,8.30
2017-06-19T12:47:28.926Z,9.70
2017-06-19T12:49:54.930Z,11.37
2017-06-19T12:52:20.929Z,10.50
2017-06-19T12:54:46.963Z,11.57
2017-06-19T12:57:12.931Z,10.60
2017-06-19T12:59:38.935Z,12.07
2017-06-19T13:02:04.927Z,19.87
2017-06-19T13:04:30.960Z,11.65
2017-06-19T13:06:57.012Z,11.15
2017-06-19T13:09:22.970Z,11.80
2017-06-19T13:11:48.940Z,12.90
2017-06-19T13:14:14.942Z,13.60
2017-06-19T13:16:41.683Z,12.23
2017-06-19T13:19:07.642Z,12.75
2017-06-19T13:21:33.674Z,13.45
2017-06-19T13:24:00.530Z,14.23
2017-06-19T13:26:26.635Z,12.93
2017-06-19T13:28:52.674Z,13.23
2017-06-19T13:31:18.743Z,13.73
2017-06-19T13:33:45.452Z,13.27
2017-06-19T13:36:11.431Z,13.68
2017-06-19T13:38:37.429Z,14.52
2017-06-19T13:41:03.402Z,14.77
2017-06-19T13:43:29.421Z,15.60
2017-06-19T13:45:55.378Z,16.60
2017-06-19T13:48:21.389Z,17.10
2017-06-19T13:50:47.349Z,18.25
2017-06-19T13:53:13.433Z,20.02
2017-06-19T13:55:40.130Z,19.73
2017-06-19T13:58:06.136Z,17.00
2017-06-19T14:00:32.215Z,18.12
2017-06-19T14:02:58.244Z,17.85
2017-06-19T14:05:24.228Z,20.98
2017-06-19T14:07:50.234Z,19.05
2017-06-19T14:10:16.207Z,19.62
2017-06-19T14:12:42.205Z,18.27
2017-06-19T14:15:08.181Z,17.02
2017-06-19T14:17:34.189Z,15.60
2017-06-19T14:20:00.198Z,15.70
2017-06-19T14:22:26.166Z,16.98
2017-06-19T14:24:52.914Z,17.85
2017-06-19T14:27:18.895Z,18.02
2017-06-19T14:29:45.612Z,16.73
2017-06-19T14:32:11.613Z,15.82
2017-06-19T14:34:37.639Z,16.60
2017-06-19T14:37:03.654Z,17.48
2017-06-19T14:39:30.414Z,17.75
2017-06-19T14:41:56.418Z,18.40
2017-06-19T14:44:22.546Z,18.45
2017-06-19T14:46:48.516Z,18.60
2017-06-19T14:49:14.510Z,17.85
2017-06-19T14:51:41.247Z,16.87
2017-06-19T14:54:07.951Z,14.95
2017-06-19T14:56:34.002Z,13.70
2017-06-19T14:59:00.063Z,14.30
2017-06-19T15:01:26.039Z,13.57
2017-06-19T15:03:52.030Z,13.90
2017-06-19T15:06:18.082Z,15.40
2017-06-19T15:08:44.070Z,16.37
2017-06-19T15:11:10.091Z,15.80
2017-06-19T15:13:36.074Z,17.65
2017-06-19T15:16:02.042Z,17.20
2017-06-19T15:18:28.801Z,15.57
2017-06-19T15:21:00.902Z,15.88
2017-06-19T15:23:26.923Z,26.12
2017-06-19T15:25:52.927Z,13.88
2017-06-19T15:28:18.918Z,13.80
2017-06-19T15:30:44.898Z,12.50
2017-06-19T15:33:11.006Z,11.57
2017-06-19T15:35:37.018Z,12.35
2017-06-19T15:38:02.974Z,10.65
2017-06-19T15:40:28.996Z,8.73
2017-06-19T15:42:55.703Z,9.40
2017-06-19T15:45:21.714Z,8.77
2017-06-19T15:47:47.714Z,8.80
2017-06-19T15:50:13.718Z,7.50
2017-06-19T15:52:39.686Z,7.60
2017-06-19T15:55:05.699Z,6.43
2017-06-19T15:57:31.682Z,5.93
2017-06-19T15:59:58.462Z,6.40
2017-06-19T16:02:24.426Z,5.73
2017-06-19T16:04:50.398Z,5.73
2017-06-19T16:07:16.395Z,6.03
2017-06-19T16:09:42.387Z,5.30
2017-06-19T16:12:08.337Z,5.27
2017-06-19T16:14:34.358Z,5.07
2017-06-19T16:17:01.091Z,4.73
2017-06-19T16:19:27.898Z,5.30
2017-06-19T16:21:53.913Z,5.47
2017-06-19T16:24:19.896Z,5.43
2017-06-19T16:26:45.867Z,4.60
2017-06-19T16:29:11.926Z,4.60
2017-06-19T16:31:37.885Z,4.27
2017-06-19T16:34:03.882Z,5.20
2017-06-19T16:36:29.916Z,4.73
2017-06-19T16:38:55.897Z,4.73
2017-06-19T16:41:21.897Z,4.90
2017-06-19T16:43:47.854Z,4.63
2017-06-19T16:46:13.851Z,4.00
2017-06-19T16:48:39.850Z,4.33
2017-06-19T16:51:05.862Z,3.93
2017-06-19T16:53:31.846Z,4.27
2017-06-19T16:55:57.831Z,4.50
2017-06-19T16:58:23.838Z,4.80
2017-06-19T17:00:49.810Z,6.37
2017-06-19T17:03:15.830Z,3.97
2017-06-19T17:05:41.809Z,3.40
2017-06-19T17:08:07.786Z,3.77
2017-06-19T17:10:34.548Z,3.13
2017-06-19T17:13:00.510Z,3.33
2017-06-19T17:15:26.508Z,3.03
2017-06-19T17:17:52.514Z,3.80
2017-06-19T17:20:18.512Z,2.80
2017-06-19T17:22:44.482Z,4.70
2017-06-19T17:25:10.517Z,4.63
2017-06-19T17:27:36.486Z,4.03
2017-06-19T17:30:02.478Z,3.10
2017-06-19T17:32:29.237Z,3.60
2017-06-19T17:34:55.187Z,3.20
2017-06-19T17:37:21.185Z,4.20
2017-06-19T17:39:47.407Z,3.17
2017-06-19T17:42:13.370Z,3.23
2017-06-19T17:44:39.378Z,3.37
2017-06-19T17:47:05.406Z,3.60
2017-06-19T17:49:31.383Z,3.37
2017-06-19T17:51:58.207Z,3.40
2017-06-19T17:54:24.905Z,3.50
2017-06-19T17:56:50.926Z,3.83
2017-06-19T17:59:16.933Z,3.37
2017-06-19T18:01:42.930Z,3.93
2017-06-19T18:04:08.934Z,4.03
2017-06-19T18:06:34.937Z,3.40
2017-06-19T18:09:00.997Z,5.00
2017-06-19T18:11:27.072Z,3.73
2017-06-19T18:13:53.091Z,6.27
2017-06-19T18:16:19.067Z,4.37
2017-06-19T18:18:45.060Z,6.13
2017-06-19T18:21:11.049Z,6.37
2017-06-19T18:23:37.019Z,4.10
2017-06-19T18:26:03.049Z,4.03
2017-06-19T18:28:29.058Z,4.97
2017-06-19T18:30:55.011Z,4.03
2017-06-19T18:33:21.019Z,3.77
2017-06-19T18:35:47.016Z,4.50
2017-06-19T18:38:13.064Z,6.03
2017-06-19T18:40:39.087Z,8.70
2017-06-19T18:43:05.058Z,5.80
2017-06-19T18:45:31.050Z,4.00
2017-06-19T18:47:57.033Z,4.20
2017-06-19T18:50:23.792Z,3.90
2017-06-19T18:52:49.782Z,6.40
2017-06-19T18:55:15.771Z,4.03
2017-06-19T18:57:42.530Z,4.20
2017-06-19T19:00:08.497Z,4.43
2017-06-19T19:02:34.465Z,5.40
2017-06-19T19:05:00.497Z,4.30
2017-06-19T19:07:27.216Z,5.67
2017-06-19T19:09:53.230Z,4.93
2017-06-19T19:12:19.324Z,3.87
2017-06-19T19:14:45.277Z,5.20
2017-06-19T19:17:11.242Z,4.57
2017-06-19T19:19:37.293Z,4.50
2017-06-19T19:22:04.050Z,6.37
2017-06-19T19:24:30.035Z,4.50
2017-06-19T19:26:56.946Z,3.60
2017-06-19T19:29:22.956Z,4.20
2017-06-19T19:31:48.977Z,4.23
2017-06-19T19:34:15.729Z,4.93
2017-06-19T19:36:41.731Z,3.70
2017-06-19T19:39:07.703Z,4.93
2017-06-19T19:41:33.710Z,4.97
2017-06-19T19:43:59.742Z,4.97
2017-06-19T19:46:25.709Z,5.70
2017-06-19T19:48:51.738Z,5.37
2017-06-19T19:51:17.706Z,5.00
2017-06-19T19:53:43.678Z,5.50
2017-06-19T19:56:10.423Z,5.07
2017-06-19T19:58:36.506Z,5.83
2017-06-19T20:01:02.473Z,4.47
2017-06-19T20:03:28.498Z,4.63
2017-06-19T20:05:54.554Z,5.13
2017-06-19T20:08:20.527Z,5.30
2017-06-19T20:10:46.502Z,5.10
2017-06-19T20:13:12.502Z,5.00
2017-06-19T20:15:38.511Z,6.30
2017-06-19T20:18:04.519Z,5.40
2017-06-19T20:20:30.490Z,4.80
2017-06-19T20:22:56.588Z,5.20
2017-06-19T20:25:22.642Z,7.00
2017-06-19T20:27:48.610Z,4.80
2017-06-19T20:30:14.577Z,4.77
2017-06-19T20:32:40.586Z,6.10
2017-06-19T20:35:06.567Z,5.17
2017-06-19T20:37:32.603Z,5.10
2017-06-19T20:39:58.650Z,5.37
2017-06-19T20:42:24.654Z,6.50
2017-06-19T20:44:50.627Z,5.03
2017-06-19T20:47:16.644Z,5.90
2017-06-19T20:49:42.638Z,5.90
2017-06-19T20:52:08.631Z,7.13
2017-06-19T20:54:34.601Z,5.60
2017-06-19T20:57:00.659Z,5.70
2017-06-19T20:59:26.668Z,5.57
2017-06-19T21:01:52.646Z,6.00
2017-06-19T21:04:19.439Z,6.17
2017-06-19T21:06:45.433Z,5.07
2017-06-19T21:09:11.411Z,5.70
2017-06-19T21:11:37.465Z,6.43
2017-06-19T21:14:03.463Z,5.87
2017-06-19T21:16:29.498Z,6.30
2017-06-19T21:18:55.499Z,5.53
2017-06-19T21:21:21.527Z,5.80
2017-06-19T21:23:47.483Z,5.97
2017-06-19T21:26:13.454Z,5.70
2017-06-19T21:28:40.198Z,5.93
2017-06-19T21:31:06.166Z,6.77
2017-06-19T21:33:32.154Z,6.40
2017-06-19T21:35:58.228Z,5.80
2017-06-19T21:38:24.202Z,6.53
2017-06-19T21:40:50.206Z,5.47
2017-06-19T21:43:16.180Z,6.40
2017-06-19T21:45:42.145Z,5.50
2017-06-19T21:48:08.875Z,6.93
2017-06-19T21:50:34.826Z,5.67
2017-06-19T21:53:00.906Z,7.03
2017-06-19T21:55:26.887Z,5.97
2017-06-19T21:57:52.914Z,9.17
2017-06-19T22:00:19.673Z,5.77
2017-06-19T22:02:45.658Z,6.17
2017-06-19T22:05:11.655Z,6.23
2017-06-19T22:07:38.397Z,6.23
2017-06-19T22:10:04.367Z,8.83
2017-06-19T22:12:30.386Z,7.17
2017-06-19T22:14:57.113Z,6.13
2017-06-19T22:17:23.134Z,6.70
2017-06-19T22:19:49.906Z,6.40
2017-06-19T22:22:22.075Z,6.93
2017-06-19T22:24:48.070Z,6.10
2017-06-19T22:27:14.029Z,7.07
2017-06-19T22:29:40.781Z,5.97
2017-06-19T22:32:06.743Z,6.10
2017-06-19T22:34:32.746Z,6.00
2017-06-19T22:36:58.752Z,7.17
2017-06-19T22:39:24.729Z,8.00
2017-06-19T22:41:50.726Z,5.73
2017-06-19T22:44:16.693Z,5.87
2017-06-19T22:46:42.686Z,5.93
2017-06-19T22:49:08.661Z,7.03
2017-06-19T22:51:34.668Z,6.23
2017-06-19T22:54:00.629Z,6.40
2017-06-19T22:56:26.698Z,6.67
2017-06-19T22:58:52.657Z,7.07
2017-06-19T23:01:19.370Z,6.20
2017-06-19T23:03:45.392Z,7.43
2017-06-19T23:06:12.110Z,6.60
2017-06-19T23:08:38.806Z,8.07
2017-06-19T23:11:04.818Z,6.80
2017-06-19T23:13:30.795Z,6.93
2017-06-19T23:15:56.813Z,6.80
2017-06-19T23:18:22.776Z,6.00
2017-06-19T23:20:48.835Z,7.40
2017-06-19T23:23:14.803Z,6.77
2017-06-19T23:25:41.551Z,6.83
2017-06-19T23:28:07.515Z,7.13
2017-06-19T23:30:33.570Z,6.60
2017-06-19T23:32:59.607Z,7.20
2017-06-19T23:35:25.570Z,6.93
2017-06-19T23:37:51.555Z,7.23
2017-06-19T23:40:17.590Z,7.27
2017-06-19T23:42:44.298Z,6.77
2017-06-19T23:45:11.045Z,6.83
2017-06-19T23:47:37.005Z,6.87
2017-06-19T23:50:02.998Z,7.43
2017-06-19T23:52:29.077Z,7.40
2017-06-19T23:54:55.090Z,7.60
2017-06-19T23:57:21.067Z,7.73
2017-06-19T23:59:47.114Z,7.23
